sensor_id;sensor_type;location;lat;lon;timestamp;P1;durP1;ratioP1;P2;durP2;ratioP2
70829;SDS011;58451;51.550;7.208;2023-04-24T00:00:15;2.60;;;0.20;;
70829;SDS011;58451;51.550;7.208;2023-04-24T00:01:49;0.60;;;0.20;;
70829;SDS011;58451;51.550;7.208;2023-04-24T00:03:22;1.60;;;0.20;;
70829;SDS011;58451;51.550;7.208;2023-04-24T00:04:55;0.90;;;0.20;;
70829;SDS011;58451;51.550;7.208;2023-04-24T00:06:27;0.60;;;0.20;;
70829;SDS011;58451;51.550;7.208;2023-04-24T00:08:04;0.80;;;0.20;;
70829;SDS011;58451;51.550;7.208;2023-04-24T00:09:36;0.80;;;0.20;;
70829;SDS011;58451;51.550;7.208;2023-04-24T00:11:08;2.80;;;0.30;;
70829;SDS011;58451;51.550;7.208;2023-04-24T00:12:41;0.70;;;0.20;;
70829;SDS011;58451;51.550;7.208;2023-04-24T00:14:12;1.10;;;0.20;;
70829;SDS011;58451;51.550;7.208;2023-04-24T00:15:44;1.70;;;0.20;;
70829;SDS011;58451;51.550;7.208;2023-04-24T00:17:16;1.00;;;0.30;;
70829;SDS011;58451;51.550;7.208;2023-04-24T00:18:51;2.60;;;0.40;;
70829;SDS011;58451;51.550;7.208;2023-04-24T00:20:24;1.30;;;0.30;;
70829;SDS011;58451;51.550;7.208;2023-04-24T00:21:56;2.10;;;0.30;;
70829;SDS011;58451;51.550;7.208;2023-04-24T00:23:27;1.60;;;0.30;;
70829;SDS011;58451;51.550;7.208;2023-04-24T00:24:59;2.50;;;0.40;;
70829;SDS011;58451;51.550;7.208;2023-04-24T00:26:31;1.30;;;0.30;;
70829;SDS011;58451;51.550;7.208;2023-04-24T00:28:03;1.70;;;0.30;;
70829;SDS011;58451;51.550;7.208;2023-04-24T00:29:34;1.10;;;0.30;;
70829;SDS011;58451;51.550;7.208;2023-04-24T00:31:06;2.40;;;0.40;;
70829;SDS011;58451;51.550;7.208;2023-04-24T00:32:38;1.60;;;0.40;;
70829;SDS011;58451;51.550;7.208;2023-04-24T00:34:10;3.20;;;0.40;;
70829;SDS011;58451;51.550;7.208;2023-04-24T00:35:43;1.70;;;0.40;;
70829;SDS011;58451;51.550;7.208;2023-04-24T00:37:15;3.00;;;0.40;;
70829;SDS011;58451;51.550;7.208;2023-04-24T00:38:48;2.00;;;0.40;;
70829;SDS011;58451;51.550;7.208;2023-04-24T00:40:20;1.80;;;0.40;;
70829;SDS011;58451;51.550;7.208;2023-04-24T00:41:52;1.70;;;0.30;;
70829;SDS011;58451;51.550;7.208;2023-04-24T00:43:24;2.10;;;0.30;;
70829;SDS011;58451;51.550;7.208;2023-04-24T00:44:57;2.40;;;0.50;;
70829;SDS011;58451;51.550;7.208;2023-04-24T00:46:31;2.80;;;0.40;;
70829;SDS011;58451;51.550;7.208;2023-04-24T00:48:03;2.10;;;0.60;;
70829;SDS011;58451;51.550;7.208;2023-04-24T00:49:36;2.10;;;0.60;;
70829;SDS011;58451;51.550;7.208;2023-04-24T00:51:07;1.20;;;0.40;;
70829;SDS011;58451;51.550;7.208;2023-04-24T00:52:39;1.30;;;0.50;;
70829;SDS011;58451;51.550;7.208;2023-04-24T00:54:13;1.40;;;0.40;;
70829;SDS011;58451;51.550;7.208;2023-04-24T00:55:45;4.70;;;0.50;;
70829;SDS011;58451;51.550;7.208;2023-04-24T00:57:19;1.60;;;0.40;;
70829;SDS011;58451;51.550;7.208;2023-04-24T00:58:51;1.60;;;0.40;;
70829;SDS011;58451;51.550;7.208;2023-04-24T01:00:23;1.50;;;0.40;;
70829;SDS011;58451;51.550;7.208;2023-04-24T01:04:16;1.50;;;0.50;;
70829;SDS011;58451;51.550;7.208;2023-04-24T01:05:50;3.10;;;0.40;;
70829;SDS011;58451;51.550;7.208;2023-04-24T01:07:22;1.90;;;0.40;;
70829;SDS011;58451;51.550;7.208;2023-04-24T01:08:55;2.20;;;0.50;;
70829;SDS011;58451;51.550;7.208;2023-04-24T01:10:27;1.50;;;0.50;;
70829;SDS011;58451;51.550;7.208;2023-04-24T01:12:01;1.40;;;0.40;;
70829;SDS011;58451;51.550;7.208;2023-04-24T01:13:34;2.50;;;0.40;;
70829;SDS011;58451;51.550;7.208;2023-04-24T01:15:07;2.90;;;0.50;;
70829;SDS011;58451;51.550;7.208;2023-04-24T01:16:40;1.50;;;0.50;;
70829;SDS011;58451;51.550;7.208;2023-04-24T01:18:13;2.20;;;0.70;;
70829;SDS011;58451;51.550;7.208;2023-04-24T01:19:46;1.60;;;0.40;;
70829;SDS011;58451;51.550;7.208;2023-04-24T01:21:18;2.90;;;0.60;;
70829;SDS011;58451;51.550;7.208;2023-04-24T01:22:54;2.20;;;0.70;;
70829;SDS011;58451;51.550;7.208;2023-04-24T01:24:28;2.10;;;0.60;;
70829;SDS011;58451;51.550;7.208;2023-04-24T01:26:00;3.10;;;0.60;;
70829;SDS011;58451;51.550;7.208;2023-04-24T01:27:32;1.80;;;0.40;;
70829;SDS011;58451;51.550;7.208;2023-04-24T01:29:04;3.30;;;0.60;;
70829;SDS011;58451;51.550;7.208;2023-04-24T01:30:36;1.50;;;0.50;;
70829;SDS011;58451;51.550;7.208;2023-04-24T01:32:08;2.50;;;0.60;;
70829;SDS011;58451;51.550;7.208;2023-04-24T01:33:42;2.10;;;0.60;;
70829;SDS011;58451;51.550;7.208;2023-04-24T01:35:14;3.10;;;0.70;;
70829;SDS011;58451;51.550;7.208;2023-04-24T01:36:46;2.50;;;0.60;;
70829;SDS011;58451;51.550;7.208;2023-04-24T01:38:18;3.00;;;0.60;;
70829;SDS011;58451;51.550;7.208;2023-04-24T01:39:49;3.70;;;0.70;;
70829;SDS011;58451;51.550;7.208;2023-04-24T01:41:23;2.80;;;0.60;;
70829;SDS011;58451;51.550;7.208;2023-04-24T01:42:56;2.50;;;0.80;;
70829;SDS011;58451;51.550;7.208;2023-04-24T01:44:28;3.70;;;0.90;;
70829;SDS011;58451;51.550;7.208;2023-04-24T01:46:01;4.10;;;0.90;;
70829;SDS011;58451;51.550;7.208;2023-04-24T01:47:33;3.20;;;0.80;;
70829;SDS011;58451;51.550;7.208;2023-04-24T01:49:05;2.90;;;0.70;;
70829;SDS011;58451;51.550;7.208;2023-04-24T01:50:38;2.60;;;0.80;;
70829;SDS011;58451;51.550;7.208;2023-04-24T01:52:10;2.70;;;0.90;;
70829;SDS011;58451;51.550;7.208;2023-04-24T01:53:41;3.80;;;0.90;;
70829;SDS011;58451;51.550;7.208;2023-04-24T01:55:13;3.20;;;1.00;;
70829;SDS011;58451;51.550;7.208;2023-04-24T01:56:46;4.40;;;1.00;;
70829;SDS011;58451;51.550;7.208;2023-04-24T01:58:18;5.20;;;1.20;;
70829;SDS011;58451;51.550;7.208;2023-04-24T01:59:51;4.00;;;1.10;;
70829;SDS011;58451;51.550;7.208;2023-04-24T02:01:24;3.30;;;1.00;;
70829;SDS011;58451;51.550;7.208;2023-04-24T02:02:56;3.70;;;1.10;;
70829;SDS011;58451;51.550;7.208;2023-04-24T02:04:29;4.00;;;1.30;;
70829;SDS011;58451;51.550;7.208;2023-04-24T02:06:01;4.70;;;1.30;;
70829;SDS011;58451;51.550;7.208;2023-04-24T02:07:35;4.10;;;1.40;;
70829;SDS011;58451;51.550;7.208;2023-04-24T02:09:07;5.60;;;1.50;;
70829;SDS011;58451;51.550;7.208;2023-04-24T02:10:39;5.50;;;2.00;;
70829;SDS011;58451;51.550;7.208;2023-04-24T02:12:11;5.90;;;2.40;;
70829;SDS011;58451;51.550;7.208;2023-04-24T02:13:43;5.30;;;1.20;;
70829;SDS011;58451;51.550;7.208;2023-04-24T02:15:15;5.30;;;1.80;;
70829;SDS011;58451;51.550;7.208;2023-04-24T02:16:46;5.40;;;1.60;;
70829;SDS011;58451;51.550;7.208;2023-04-24T02:18:18;4.70;;;1.60;;
70829;SDS011;58451;51.550;7.208;2023-04-24T02:19:51;4.50;;;1.50;;
70829;SDS011;58451;51.550;7.208;2023-04-24T02:21:23;5.00;;;1.60;;
70829;SDS011;58451;51.550;7.208;2023-04-24T02:22:54;6.30;;;1.60;;
70829;SDS011;58451;51.550;7.208;2023-04-24T02:24:26;4.50;;;1.60;;
70829;SDS011;58451;51.550;7.208;2023-04-24T02:26:12;4.10;;;1.20;;
70829;SDS011;58451;51.550;7.208;2023-04-24T02:27:44;5.60;;;1.60;;
70829;SDS011;58451;51.550;7.208;2023-04-24T02:29:16;5.20;;;1.60;;
70829;SDS011;58451;51.550;7.208;2023-04-24T02:30:48;5.10;;;2.00;;
70829;SDS011;58451;51.550;7.208;2023-04-24T02:32:19;6.80;;;2.20;;
70829;SDS011;58451;51.550;7.208;2023-04-24T02:33:51;6.00;;;2.10;;
70829;SDS011;58451;51.550;7.208;2023-04-24T02:35:23;7.00;;;2.10;;
70829;SDS011;58451;51.550;7.208;2023-04-24T02:36:55;7.10;;;1.90;;
70829;SDS011;58451;51.550;7.208;2023-04-24T02:38:27;7.30;;;2.40;;
70829;SDS011;58451;51.550;7.208;2023-04-24T02:39:59;9.30;;;2.60;;
70829;SDS011;58451;51.550;7.208;2023-04-24T02:41:31;7.30;;;2.50;;
70829;SDS011;58451;51.550;7.208;2023-04-24T02:43:04;6.80;;;2.40;;
70829;SDS011;58451;51.550;7.208;2023-04-24T02:44:36;6.70;;;2.80;;
70829;SDS011;58451;51.550;7.208;2023-04-24T02:46:07;7.10;;;2.60;;
70829;SDS011;58451;51.550;7.208;2023-04-24T02:47:39;9.70;;;3.90;;
70829;SDS011;58451;51.550;7.208;2023-04-24T02:49:11;8.50;;;2.90;;
70829;SDS011;58451;51.550;7.208;2023-04-24T02:50:43;7.00;;;2.10;;
70829;SDS011;58451;51.550;7.208;2023-04-24T02:52:15;8.50;;;3.60;;
70829;SDS011;58451;51.550;7.208;2023-04-24T02:53:48;9.60;;;3.50;;
70829;SDS011;58451;51.550;7.208;2023-04-24T02:55:20;7.50;;;3.10;;
70829;SDS011;58451;51.550;7.208;2023-04-24T02:56:51;9.80;;;3.70;;
70829;SDS011;58451;51.550;7.208;2023-04-24T02:58:23;9.80;;;4.30;;
70829;SDS011;58451;51.550;7.208;2023-04-24T02:59:56;9.20;;;3.50;;
70829;SDS011;58451;51.550;7.208;2023-04-24T03:01:28;9.20;;;3.80;;
70829;SDS011;58451;51.550;7.208;2023-04-24T03:03:00;9.50;;;3.10;;
70829;SDS011;58451;51.550;7.208;2023-04-24T03:04:33;8.90;;;3.20;;
70829;SDS011;58451;51.550;7.208;2023-04-24T03:06:05;10.00;;;3.80;;
70829;SDS011;58451;51.550;7.208;2023-04-24T03:07:39;10.20;;;4.20;;
70829;SDS011;58451;51.550;7.208;2023-04-24T03:09:11;10.60;;;4.30;;
70829;SDS011;58451;51.550;7.208;2023-04-24T03:10:43;9.50;;;3.70;;
70829;SDS011;58451;51.550;7.208;2023-04-24T03:12:19;12.40;;;4.60;;
70829;SDS011;58451;51.550;7.208;2023-04-24T03:13:50;8.80;;;3.20;;
70829;SDS011;58451;51.550;7.208;2023-04-24T03:15:23;11.40;;;4.00;;
70829;SDS011;58451;51.550;7.208;2023-04-24T03:16:55;12.90;;;4.80;;
70829;SDS011;58451;51.550;7.208;2023-04-24T03:18:27;12.40;;;5.40;;
70829;SDS011;58451;51.550;7.208;2023-04-24T03:19:59;11.30;;;4.40;;
70829;SDS011;58451;51.550;7.208;2023-04-24T03:21:30;10.60;;;4.70;;
70829;SDS011;58451;51.550;7.208;2023-04-24T03:23:03;11.10;;;4.50;;
70829;SDS011;58451;51.550;7.208;2023-04-24T03:24:35;10.90;;;4.90;;
70829;SDS011;58451;51.550;7.208;2023-04-24T03:26:08;12.90;;;4.70;;
70829;SDS011;58451;51.550;7.208;2023-04-24T03:27:41;12.20;;;4.80;;
70829;SDS011;58451;51.550;7.208;2023-04-24T03:29:32;11.60;;;4.70;;
70829;SDS011;58451;51.550;7.208;2023-04-24T03:31:04;11.20;;;4.70;;
70829;SDS011;58451;51.550;7.208;2023-04-24T03:32:38;12.10;;;4.30;;
70829;SDS011;58451;51.550;7.208;2023-04-24T03:34:11;12.80;;;5.10;;
70829;SDS011;58451;51.550;7.208;2023-04-24T03:35:43;10.00;;;4.30;;
70829;SDS011;58451;51.550;7.208;2023-04-24T03:37:16;12.50;;;5.80;;
70829;SDS011;58451;51.550;7.208;2023-04-24T03:38:54;12.70;;;5.60;;
70829;SDS011;58451;51.550;7.208;2023-04-24T03:40:32;12.80;;;5.50;;
70829;SDS011;58451;51.550;7.208;2023-04-24T03:42:05;14.50;;;6.20;;
70829;SDS011;58451;51.550;7.208;2023-04-24T03:43:46;11.00;;;4.20;;
70829;SDS011;58451;51.550;7.208;2023-04-24T03:45:19;10.80;;;5.20;;
70829;SDS011;58451;51.550;7.208;2023-04-24T03:46:52;13.80;;;5.20;;
70829;SDS011;58451;51.550;7.208;2023-04-24T03:48:25;13.20;;;4.90;;
70829;SDS011;58451;51.550;7.208;2023-04-24T03:49:58;11.40;;;5.00;;
70829;SDS011;58451;51.550;7.208;2023-04-24T03:51:30;15.50;;;5.70;;
70829;SDS011;58451;51.550;7.208;2023-04-24T03:53:11;12.90;;;5.50;;
70829;SDS011;58451;51.550;7.208;2023-04-24T03:54:44;12.00;;;5.30;;
70829;SDS011;58451;51.550;7.208;2023-04-24T03:56:16;13.50;;;5.30;;
70829;SDS011;58451;51.550;7.208;2023-04-24T03:57:48;12.60;;;5.50;;
70829;SDS011;58451;51.550;7.208;2023-04-24T03:59:25;13.20;;;5.30;;
70829;SDS011;58451;51.550;7.208;2023-04-24T04:01:08;11.90;;;4.80;;
70829;SDS011;58451;51.550;7.208;2023-04-24T04:02:48;13.70;;;5.50;;
70829;SDS011;58451;51.550;7.208;2023-04-24T04:04:21;12.60;;;4.80;;
70829;SDS011;58451;51.550;7.208;2023-04-24T04:05:54;13.50;;;6.10;;
70829;SDS011;58451;51.550;7.208;2023-04-24T04:07:26;14.20;;;6.30;;
70829;SDS011;58451;51.550;7.208;2023-04-24T04:08:58;12.00;;;4.90;;
70829;SDS011;58451;51.550;7.208;2023-04-24T04:10:30;13.00;;;5.60;;
70829;SDS011;58451;51.550;7.208;2023-04-24T04:12:02;14.20;;;5.70;;
70829;SDS011;58451;51.550;7.208;2023-04-24T04:13:36;15.60;;;5.70;;
70829;SDS011;58451;51.550;7.208;2023-04-24T04:15:08;11.80;;;4.70;;
70829;SDS011;58451;51.550;7.208;2023-04-24T04:16:40;12.40;;;4.60;;
70829;SDS011;58451;51.550;7.208;2023-04-24T04:18:14;11.30;;;4.50;;
70829;SDS011;58451;51.550;7.208;2023-04-24T04:19:46;18.90;;;6.50;;
70829;SDS011;58451;51.550;7.208;2023-04-24T04:21:18;13.00;;;5.20;;
70829;SDS011;58451;51.550;7.208;2023-04-24T04:22:50;16.60;;;5.10;;
70829;SDS011;58451;51.550;7.208;2023-04-24T04:24:27;12.40;;;5.50;;
70829;SDS011;58451;51.550;7.208;2023-04-24T04:26:03;12.70;;;5.70;;
70829;SDS011;58451;51.550;7.208;2023-04-24T04:27:50;12.00;;;4.90;;
70829;SDS011;58451;51.550;7.208;2023-04-24T04:29:24;11.40;;;5.00;;
70829;SDS011;58451;51.550;7.208;2023-04-24T04:30:59;12.10;;;4.70;;
70829;SDS011;58451;51.550;7.208;2023-04-24T04:32:36;13.30;;;6.10;;
70829;SDS011;58451;51.550;7.208;2023-04-24T04:34:10;13.00;;;4.90;;
70829;SDS011;58451;51.550;7.208;2023-04-24T04:35:49;15.10;;;5.50;;
70829;SDS011;58451;51.550;7.208;2023-04-24T04:37:28;16.00;;;6.00;;
70829;SDS011;58451;51.550;7.208;2023-04-24T04:39:40;11.30;;;4.70;;
70829;SDS011;58451;51.550;7.208;2023-04-24T04:41:21;12.70;;;5.10;;
70829;SDS011;58451;51.550;7.208;2023-04-24T04:42:54;12.00;;;5.10;;
70829;SDS011;58451;51.550;7.208;2023-04-24T04:44:27;15.90;;;5.60;;
70829;SDS011;58451;51.550;7.208;2023-04-24T04:46:01;13.00;;;5.60;;
70829;SDS011;58451;51.550;7.208;2023-04-24T04:47:57;11.60;;;5.20;;
70829;SDS011;58451;51.550;7.208;2023-04-24T04:49:33;11.70;;;4.00;;
70829;SDS011;58451;51.550;7.208;2023-04-24T04:51:09;13.70;;;5.40;;
70829;SDS011;58451;51.550;7.208;2023-04-24T04:52:42;13.10;;;5.10;;
70829;SDS011;58451;51.550;7.208;2023-04-24T04:54:26;13.90;;;5.70;;
70829;SDS011;58451;51.550;7.208;2023-04-24T04:55:58;15.60;;;6.20;;
70829;SDS011;58451;51.550;7.208;2023-04-24T04:57:37;11.00;;;4.40;;
70829;SDS011;58451;51.550;7.208;2023-04-24T04:59:09;15.80;;;6.40;;
70829;SDS011;58451;51.550;7.208;2023-04-24T05:00:42;14.50;;;5.50;;
70829;SDS011;58451;51.550;7.208;2023-04-24T05:02:35;12.70;;;5.50;;
70829;SDS011;58451;51.550;7.208;2023-04-24T05:04:07;13.80;;;5.60;;
70829;SDS011;58451;51.550;7.208;2023-04-24T05:05:41;12.10;;;5.70;;
70829;SDS011;58451;51.550;7.208;2023-04-24T05:07:15;14.70;;;5.50;;
70829;SDS011;58451;51.550;7.208;2023-04-24T05:08:49;15.00;;;5.80;;
70829;SDS011;58451;51.550;7.208;2023-04-24T05:10:37;14.50;;;5.20;;
70829;SDS011;58451;51.550;7.208;2023-04-24T05:12:09;13.00;;;5.30;;
70829;SDS011;58451;51.550;7.208;2023-04-24T05:13:45;12.30;;;5.10;;
70829;SDS011;58451;51.550;7.208;2023-04-24T05:15:22;13.60;;;6.10;;
70829;SDS011;58451;51.550;7.208;2023-04-24T05:16:54;10.90;;;5.20;;
70829;SDS011;58451;51.550;7.208;2023-04-24T05:18:26;13.10;;;5.10;;
70829;SDS011;58451;51.550;7.208;2023-04-24T05:19:58;12.00;;;5.50;;
70829;SDS011;58451;51.550;7.208;2023-04-24T05:21:30;10.40;;;4.90;;
70829;SDS011;58451;51.550;7.208;2023-04-24T05:23:02;11.90;;;4.90;;
70829;SDS011;58451;51.550;7.208;2023-04-24T05:24:34;11.00;;;5.00;;
70829;SDS011;58451;51.550;7.208;2023-04-24T05:26:16;12.40;;;5.10;;
70829;SDS011;58451;51.550;7.208;2023-04-24T05:27:49;14.60;;;5.50;;
70829;SDS011;58451;51.550;7.208;2023-04-24T05:29:21;10.00;;;4.40;;
70829;SDS011;58451;51.550;7.208;2023-04-24T05:30:54;11.80;;;5.10;;
70829;SDS011;58451;51.550;7.208;2023-04-24T05:32:30;11.60;;;4.20;;
70829;SDS011;58451;51.550;7.208;2023-04-24T05:34:02;10.30;;;4.50;;
70829;SDS011;58451;51.550;7.208;2023-04-24T05:35:34;10.30;;;3.70;;
70829;SDS011;58451;51.550;7.208;2023-04-24T05:37:06;10.90;;;4.60;;
70829;SDS011;58451;51.550;7.208;2023-04-24T05:38:41;10.90;;;4.50;;
70829;SDS011;58451;51.550;7.208;2023-04-24T05:40:13;9.80;;;3.60;;
70829;SDS011;58451;51.550;7.208;2023-04-24T05:41:45;11.10;;;4.50;;
70829;SDS011;58451;51.550;7.208;2023-04-24T05:43:17;8.60;;;3.10;;
70829;SDS011;58451;51.550;7.208;2023-04-24T05:44:49;9.20;;;3.90;;
70829;SDS011;58451;51.550;7.208;2023-04-24T05:46:24;12.50;;;4.10;;
70829;SDS011;58451;51.550;7.208;2023-04-24T05:47:56;8.20;;;2.90;;
70829;SDS011;58451;51.550;7.208;2023-04-24T05:49:28;9.60;;;4.50;;
70829;SDS011;58451;51.550;7.208;2023-04-24T05:51:00;8.80;;;3.70;;
70829;SDS011;58451;51.550;7.208;2023-04-24T05:52:32;9.00;;;3.70;;
70829;SDS011;58451;51.550;7.208;2023-04-24T05:54:05;9.30;;;4.20;;
70829;SDS011;58451;51.550;7.208;2023-04-24T05:55:36;10.00;;;4.10;;
70829;SDS011;58451;51.550;7.208;2023-04-24T05:57:08;11.80;;;4.90;;
70829;SDS011;58451;51.550;7.208;2023-04-24T05:59:00;11.30;;;4.90;;
70829;SDS011;58451;51.550;7.208;2023-04-24T06:00:32;11.30;;;5.20;;
70829;SDS011;58451;51.550;7.208;2023-04-24T06:02:08;8.40;;;3.90;;
70829;SDS011;58451;51.550;7.208;2023-04-24T06:03:41;12.80;;;5.30;;
70829;SDS011;58451;51.550;7.208;2023-04-24T06:05:13;10.40;;;4.30;;
70829;SDS011;58451;51.550;7.208;2023-04-24T06:06:46;11.20;;;4.80;;
70829;SDS011;58451;51.550;7.208;2023-04-24T06:08:22;13.50;;;4.80;;
70829;SDS011;58451;51.550;7.208;2023-04-24T06:09:53;9.10;;;3.30;;
70829;SDS011;58451;51.550;7.208;2023-04-24T06:11:26;13.30;;;5.10;;
70829;SDS011;58451;51.550;7.208;2023-04-24T06:12:58;11.30;;;5.30;;
70829;SDS011;58451;51.550;7.208;2023-04-24T06:14:33;9.50;;;4.20;;
70829;SDS011;58451;51.550;7.208;2023-04-24T06:16:19;10.40;;;4.30;;
70829;SDS011;58451;51.550;7.208;2023-04-24T06:17:57;13.40;;;5.00;;
70829;SDS011;58451;51.550;7.208;2023-04-24T06:19:29;12.30;;;5.50;;
70829;SDS011;58451;51.550;7.208;2023-04-24T06:21:01;9.80;;;4.40;;
70829;SDS011;58451;51.550;7.208;2023-04-24T06:22:33;9.90;;;3.90;;
70829;SDS011;58451;51.550;7.208;2023-04-24T06:24:07;11.40;;;5.00;;
70829;SDS011;58451;51.550;7.208;2023-04-24T06:25:39;9.80;;;4.20;;
70829;SDS011;58451;51.550;7.208;2023-04-24T06:27:11;10.30;;;4.50;;
70829;SDS011;58451;51.550;7.208;2023-04-24T06:28:44;10.10;;;3.50;;
70829;SDS011;58451;51.550;7.208;2023-04-24T06:30:16;8.70;;;3.80;;
70829;SDS011;58451;51.550;7.208;2023-04-24T06:31:48;9.10;;;4.10;;
70829;SDS011;58451;51.550;7.208;2023-04-24T06:33:20;10.40;;;4.20;;
70829;SDS011;58451;51.550;7.208;2023-04-24T06:34:54;11.10;;;4.10;;
70829;SDS011;58451;51.550;7.208;2023-04-24T06:36:28;9.40;;;3.70;;
70829;SDS011;58451;51.550;7.208;2023-04-24T06:38:00;11.80;;;4.00;;
70829;SDS011;58451;51.550;7.208;2023-04-24T06:39:32;9.00;;;3.40;;
70829;SDS011;58451;51.550;7.208;2023-04-24T06:41:04;10.00;;;3.80;;
70829;SDS011;58451;51.550;7.208;2023-04-24T06:42:36;9.90;;;3.80;;
70829;SDS011;58451;51.550;7.208;2023-04-24T06:44:12;8.60;;;3.60;;
70829;SDS011;58451;51.550;7.208;2023-04-24T06:45:45;8.30;;;3.20;;
70829;SDS011;58451;51.550;7.208;2023-04-24T06:47:18;8.80;;;3.90;;
70829;SDS011;58451;51.550;7.208;2023-04-24T06:48:50;9.20;;;3.60;;
70829;SDS011;58451;51.550;7.208;2023-04-24T06:50:22;10.90;;;3.80;;
70829;SDS011;58451;51.550;7.208;2023-04-24T06:51:54;9.60;;;3.90;;
70829;SDS011;58451;51.550;7.208;2023-04-24T06:53:25;10.20;;;4.00;;
70829;SDS011;58451;51.550;7.208;2023-04-24T06:55:03;8.50;;;3.80;;
70829;SDS011;58451;51.550;7.208;2023-04-24T06:56:35;7.80;;;3.40;;
70829;SDS011;58451;51.550;7.208;2023-04-24T06:58:07;7.10;;;2.90;;
70829;SDS011;58451;51.550;7.208;2023-04-24T06:59:39;8.00;;;3.30;;
70829;SDS011;58451;51.550;7.208;2023-04-24T07:01:11;8.20;;;3.50;;
70829;SDS011;58451;51.550;7.208;2023-04-24T07:02:43;7.80;;;3.10;;
70829;SDS011;58451;51.550;7.208;2023-04-24T07:04:15;7.30;;;3.00;;
70829;SDS011;58451;51.550;7.208;2023-04-24T07:05:48;7.90;;;3.30;;
70829;SDS011;58451;51.550;7.208;2023-04-24T07:07:20;6.00;;;2.10;;
70829;SDS011;58451;51.550;7.208;2023-04-24T07:08:55;9.30;;;3.20;;
70829;SDS011;58451;51.550;7.208;2023-04-24T07:10:27;8.40;;;3.20;;
70829;SDS011;58451;51.550;7.208;2023-04-24T07:12:00;6.50;;;2.60;;
70829;SDS011;58451;51.550;7.208;2023-04-24T07:13:32;6.80;;;2.70;;
70829;SDS011;58451;51.550;7.208;2023-04-24T07:15:05;7.60;;;2.90;;
70829;SDS011;58451;51.550;7.208;2023-04-24T07:16:37;7.60;;;2.90;;
70829;SDS011;58451;51.550;7.208;2023-04-24T07:18:09;6.90;;;3.10;;
70829;SDS011;58451;51.550;7.208;2023-04-24T07:19:41;6.70;;;2.30;;
70829;SDS011;58451;51.550;7.208;2023-04-24T07:21:14;7.80;;;3.20;;
70829;SDS011;58451;51.550;7.208;2023-04-24T07:22:45;7.50;;;3.00;;
70829;SDS011;58451;51.550;7.208;2023-04-24T07:24:17;9.00;;;3.70;;
70829;SDS011;58451;51.550;7.208;2023-04-24T07:25:52;7.20;;;2.60;;
70829;SDS011;58451;51.550;7.208;2023-04-24T07:27:25;6.70;;;2.60;;
70829;SDS011;58451;51.550;7.208;2023-04-24T07:28:57;6.50;;;2.10;;
70829;SDS011;58451;51.550;7.208;2023-04-24T07:30:28;6.30;;;2.40;;
70829;SDS011;58451;51.550;7.208;2023-04-24T07:32:00;5.40;;;1.90;;
70829;SDS011;58451;51.550;7.208;2023-04-24T07:33:34;4.40;;;1.50;;
70829;SDS011;58451;51.550;7.208;2023-04-24T07:35:08;5.70;;;2.00;;
70829;SDS011;58451;51.550;7.208;2023-04-24T07:36:41;4.60;;;1.30;;
70829;SDS011;58451;51.550;7.208;2023-04-24T07:38:13;4.80;;;1.50;;
70829;SDS011;58451;51.550;7.208;2023-04-24T07:39:45;3.20;;;1.20;;
70829;SDS011;58451;51.550;7.208;2023-04-24T07:41:17;4.00;;;1.40;;
70829;SDS011;58451;51.550;7.208;2023-04-24T07:42:49;5.50;;;1.70;;
70829;SDS011;58451;51.550;7.208;2023-04-24T07:44:21;4.80;;;1.70;;
70829;SDS011;58451;51.550;7.208;2023-04-24T07:45:52;4.00;;;1.40;;
70829;SDS011;58451;51.550;7.208;2023-04-24T07:47:25;4.00;;;1.20;;
70829;SDS011;58451;51.550;7.208;2023-04-24T07:48:57;4.40;;;1.40;;
70829;SDS011;58451;51.550;7.208;2023-04-24T07:50:45;3.40;;;1.00;;
70829;SDS011;58451;51.550;7.208;2023-04-24T07:52:17;2.70;;;0.90;;
70829;SDS011;58451;51.550;7.208;2023-04-24T07:53:48;4.00;;;1.10;;
70829;SDS011;58451;51.550;7.208;2023-04-24T07:55:20;4.30;;;1.40;;
70829;SDS011;58451;51.550;7.208;2023-04-24T07:56:56;5.10;;;1.10;;
70829;SDS011;58451;51.550;7.208;2023-04-24T07:58:27;3.00;;;0.90;;
70829;SDS011;58451;51.550;7.208;2023-04-24T07:59:59;3.90;;;0.90;;
70829;SDS011;58451;51.550;7.208;2023-04-24T08:01:41;5.10;;;1.20;;
70829;SDS011;58451;51.550;7.208;2023-04-24T08:03:14;3.40;;;1.00;;
70829;SDS011;58451;51.550;7.208;2023-04-24T08:04:46;4.80;;;1.00;;
70829;SDS011;58451;51.550;7.208;2023-04-24T08:06:18;2.70;;;0.80;;
70829;SDS011;58451;51.550;7.208;2023-04-24T08:07:49;2.30;;;0.80;;
70829;SDS011;58451;51.550;7.208;2023-04-24T08:09:21;2.20;;;0.80;;
70829;SDS011;58451;51.550;7.208;2023-04-24T08:10:54;3.20;;;0.70;;
70829;SDS011;58451;51.550;7.208;2023-04-24T08:12:30;1.80;;;0.60;;
70829;SDS011;58451;51.550;7.208;2023-04-24T08:14:02;1.70;;;0.60;;
70829;SDS011;58451;51.550;7.208;2023-04-24T08:15:34;2.40;;;0.50;;
70829;SDS011;58451;51.550;7.208;2023-04-24T08:17:06;1.40;;;0.30;;
70829;SDS011;58451;51.550;7.208;2023-04-24T08:18:38;1.40;;;0.40;;
70829;SDS011;58451;51.550;7.208;2023-04-24T08:20:10;1.10;;;0.30;;
70829;SDS011;58451;51.550;7.208;2023-04-24T08:21:45;1.80;;;0.30;;
70829;SDS011;58451;51.550;7.208;2023-04-24T08:23:17;1.50;;;0.30;;
70829;SDS011;58451;51.550;7.208;2023-04-24T08:24:49;1.80;;;0.30;;
70829;SDS011;58451;51.550;7.208;2023-04-24T08:26:21;1.30;;;0.30;;
70829;SDS011;58451;51.550;7.208;2023-04-24T08:27:53;0.90;;;0.20;;
70829;SDS011;58451;51.550;7.208;2023-04-24T08:29:26;0.60;;;0.30;;
70829;SDS011;58451;51.550;7.208;2023-04-24T08:30:58;1.10;;;0.30;;
70829;SDS011;58451;51.550;7.208;2023-04-24T08:32:30;1.10;;;0.20;;
70829;SDS011;58451;51.550;7.208;2023-04-24T08:34:01;0.90;;;0.20;;
70829;SDS011;58451;51.550;7.208;2023-04-24T08:35:33;0.70;;;0.20;;
70829;SDS011;58451;51.550;7.208;2023-04-24T08:37:05;0.60;;;0.20;;
70829;SDS011;58451;51.550;7.208;2023-04-24T08:38:37;1.00;;;0.20;;
70829;SDS011;58451;51.550;7.208;2023-04-24T08:40:13;1.10;;;0.30;;
70829;SDS011;58451;51.550;7.208;2023-04-24T08:41:48;1.00;;;0.40;;
70829;SDS011;58451;51.550;7.208;2023-04-24T08:43:21;1.30;;;0.30;;
70829;SDS011;58451;51.550;7.208;2023-04-24T08:44:54;0.70;;;0.20;;
70829;SDS011;58451;51.550;7.208;2023-04-24T08:46:27;0.70;;;0.30;;
70829;SDS011;58451;51.550;7.208;2023-04-24T08:47:59;1.90;;;0.40;;
70829;SDS011;58451;51.550;7.208;2023-04-24T08:49:32;0.70;;;0.30;;
70829;SDS011;58451;51.550;7.208;2023-04-24T08:51:07;1.00;;;0.30;;
70829;SDS011;58451;51.550;7.208;2023-04-24T08:52:41;1.30;;;0.30;;
70829;SDS011;58451;51.550;7.208;2023-04-24T08:54:13;0.80;;;0.30;;
70829;SDS011;58451;51.550;7.208;2023-04-24T08:55:47;5.40;;;0.60;;
70829;SDS011;58451;51.550;7.208;2023-04-24T08:57:19;2.20;;;0.40;;
70829;SDS011;58451;51.550;7.208;2023-04-24T08:58:53;1.60;;;0.40;;
70829;SDS011;58451;51.550;7.208;2023-04-24T09:00:27;1.90;;;0.40;;
70829;SDS011;58451;51.550;7.208;2023-04-24T09:01:59;3.70;;;0.70;;
70829;SDS011;58451;51.550;7.208;2023-04-24T09:03:32;1.40;;;0.30;;
70829;SDS011;58451;51.550;7.208;2023-04-24T09:05:06;1.80;;;0.50;;
70829;SDS011;58451;51.550;7.208;2023-04-24T09:06:39;2.40;;;0.50;;
70829;SDS011;58451;51.550;7.208;2023-04-24T09:08:12;2.00;;;0.60;;
70829;SDS011;58451;51.550;7.208;2023-04-24T09:09:45;3.60;;;1.20;;
70829;SDS011;58451;51.550;7.208;2023-04-24T09:11:17;3.00;;;0.70;;
70829;SDS011;58451;51.550;7.208;2023-04-24T09:12:50;2.00;;;0.80;;
70829;SDS011;58451;51.550;7.208;2023-04-24T09:14:23;2.70;;;0.70;;
70829;SDS011;58451;51.550;7.208;2023-04-24T09:15:55;2.80;;;1.00;;
70829;SDS011;58451;51.550;7.208;2023-04-24T09:17:30;2.70;;;1.00;;
70829;SDS011;58451;51.550;7.208;2023-04-24T09:19:02;2.90;;;1.00;;
70829;SDS011;58451;51.550;7.208;2023-04-24T09:20:34;3.60;;;1.10;;
70829;SDS011;58451;51.550;7.208;2023-04-24T09:22:30;3.30;;;1.00;;